createdAt,value
2017-09-10T00:01:01.501Z,82.40
2017-09-10T00:03:02.477Z,80.80
2017-09-10T00:05:03.434Z,80.90
2017-09-10T00:07:04.404Z,82.50
2017-09-10T00:09:05.373Z,82.10
2017-09-10T00:11:06.337Z,81.90
2017-09-10T00:13:07.312Z,81.30
2017-09-10T00:15:08.268Z,80.90
2017-09-10T00:17:09.225Z,80.10
2017-09-10T00:19:10.209Z,80.10
2017-09-10T00:21:11.331Z,80.50
2017-09-10T00:23:12.296Z,81.60
2017-09-10T00:25:13.251Z,81.80
2017-09-10T00:27:14.961Z,81.20
2017-09-10T00:29:15.934Z,81.20
2017-09-10T00:31:16.900Z,81.10
2017-09-10T00:33:17.857Z,81.00
2017-09-10T00:35:18.805Z,81.60
2017-09-10T00:37:19.770Z,80.90
2017-09-10T00:39:21.492Z,81.20
2017-09-10T00:41:22.446Z,81.20
2017-09-10T00:43:24.153Z,81.20
2017-09-10T00:45:25.114Z,81.10
2017-09-10T00:47:26.162Z,81.10
2017-09-10T00:49:27.121Z,81.50
2017-09-10T00:51:28.173Z,81.80
2017-09-10T00:53:29.177Z,81.50
2017-09-10T00:55:30.876Z,81.90
2017-09-10T00:57:31.849Z,81.70
2017-09-10T00:59:32.841Z,82.60
2017-09-10T01:01:33.805Z,83.10
2017-09-10T01:03:34.759Z,81.90
2017-09-10T01:05:35.734Z,81.60
2017-09-10T01:07:36.694Z,81.40
2017-09-10T01:09:37.661Z,81.80
2017-09-10T01:11:38.623Z,81.80
2017-09-10T01:13:40.325Z,81.40
2017-09-10T01:15:41.297Z,81.30
2017-09-10T01:17:42.246Z,81.20
2017-09-10T01:19:43.957Z,82.10
2017-09-10T01:21:44.944Z,81.30
2017-09-10T01:23:46.654Z,81.50
2017-09-10T01:25:47.617Z,81.40
2017-09-10T01:27:48.573Z,81.50
2017-09-10T01:29:49.534Z,81.90
2017-09-10T01:31:50.538Z,81.60
2017-09-10T01:33:52.238Z,82.50
2017-09-10T01:35:53.206Z,82.40
2017-09-10T01:37:54.165Z,83.40
2017-09-10T01:39:55.888Z,84.40
2017-09-10T01:41:56.857Z,84.30
2017-09-10T01:43:58.589Z,84.60
2017-09-10T01:45:59.540Z,85.40
2017-09-10T01:48:01.233Z,83.90
2017-09-10T01:50:02.185Z,83.90
2017-09-10T01:52:03.134Z,83.60
2017-09-10T01:54:04.084Z,83.50
2017-09-10T01:56:05.042Z,83.30
2017-09-10T01:58:05.999Z,82.50
2017-09-10T02:00:06.953Z,82.80
2017-09-10T02:02:07.909Z,82.70
2017-09-10T02:04:08.861Z,82.60
2017-09-10T02:06:09.813Z,82.50
2017-09-10T02:08:11.544Z,83.00
2017-09-10T02:10:12.501Z,83.00
2017-09-10T02:12:14.208Z,82.10
2017-09-10T02:14:15.148Z,82.10
2017-09-10T02:16:16.137Z,82.60
2017-09-10T02:18:17.089Z,81.80
2017-09-10T02:20:18.173Z,82.70
2017-09-10T02:22:19.145Z,82.50
2017-09-10T02:24:20.842Z,83.40
2017-09-10T02:26:21.800Z,83.30
2017-09-10T02:28:22.759Z,83.40
2017-09-10T02:30:23.710Z,82.90
2017-09-10T02:32:24.679Z,82.60
2017-09-10T02:34:25.643Z,84.20
2017-09-10T02:36:26.600Z,84.60
2017-09-10T02:38:28.302Z,83.50
2017-09-10T02:40:36.300Z,83.40
2017-09-10T02:42:37.287Z,83.40
2017-09-10T02:44:38.985Z,83.30
2017-09-10T02:46:39.932Z,83.30
2017-09-10T02:48:40.889Z,81.30
2017-09-10T02:50:41.848Z,82.90
2017-09-10T02:52:43.561Z,83.10
2017-09-10T02:54:44.578Z,83.50
2017-09-10T02:56:45.565Z,84.50
2017-09-10T02:58:46.551Z,83.30
2017-09-10T03:00:47.529Z,85.00
2017-09-10T03:02:48.537Z,84.80
2017-09-10T03:04:49.497Z,83.20
2017-09-10T03:06:50.460Z,83.50
2017-09-10T03:08:52.181Z,81.80
2017-09-10T03:10:53.141Z,81.80
2017-09-10T03:12:54.180Z,82.20
2017-09-10T03:14:55.268Z,81.90
2017-09-10T03:16:56.241Z,82.20
2017-09-10T03:18:57.208Z,82.40
2017-09-10T03:20:58.902Z,81.70
2017-09-10T03:22:59.889Z,81.70
2017-09-10T03:25:01.598Z,84.00
2017-09-10T03:27:02.561Z,83.00
2017-09-10T03:29:03.609Z,83.70
2017-09-10T03:31:04.613Z,84.20
2017-09-10T03:33:05.619Z,84.20
2017-09-10T03:35:06.605Z,84.00
2017-09-10T03:37:07.624Z,83.00
2017-09-10T03:39:08.589Z,83.00
2017-09-10T03:41:09.649Z,83.10
2017-09-10T03:43:10.623Z,83.10
2017-09-10T03:45:12.337Z,82.20
2017-09-10T03:47:13.296Z,82.10
2017-09-10T03:49:14.257Z,82.00
2017-09-10T03:51:15.218Z,81.30
2017-09-10T03:53:16.173Z,81.40
2017-09-10T03:55:17.127Z,80.80
2017-09-10T03:57:18.084Z,81.10
2017-09-10T03:59:19.089Z,81.60
2017-09-10T04:01:20.115Z,82.20
2017-09-10T04:03:21.080Z,82.40
2017-09-10T04:05:22.075Z,82.20
2017-09-10T04:07:23.048Z,82.70
2017-09-10T04:09:24.763Z,82.50
2017-09-10T04:11:25.770Z,83.00
2017-09-10T04:13:27.465Z,82.30
2017-09-10T04:15:28.481Z,82.30
2017-09-10T04:17:29.470Z,83.90
2017-09-10T04:19:30.436Z,82.70
2017-09-10T04:21:31.414Z,82.20
2017-09-10T04:23:32.432Z,82.00
2017-09-10T04:25:33.408Z,82.10
2017-09-10T04:27:34.442Z,82.50
2017-09-10T04:29:35.470Z,84.40
2017-09-10T04:31:36.563Z,85.30
2017-09-10T04:33:37.544Z,84.90
2017-09-10T04:35:38.573Z,84.00
2017-09-10T04:37:39.618Z,84.90
2017-09-10T04:39:40.584Z,83.70
2017-09-10T04:41:41.589Z,83.60
2017-09-10T04:43:42.560Z,84.90
2017-09-10T04:45:43.554Z,84.50
2017-09-10T04:47:44.536Z,83.70
2017-09-10T04:49:45.522Z,83.70
2017-09-10T04:51:46.509Z,84.40
2017-09-10T04:53:47.504Z,83.80
2017-09-10T04:55:48.505Z,83.80
2017-09-10T04:57:49.521Z,84.70
2017-09-10T04:59:51.229Z,84.80
2017-09-10T05:01:52.246Z,84.80
2017-09-10T05:03:53.225Z,85.30
2017-09-10T05:05:54.187Z,85.80
2017-09-10T05:07:55.901Z,86.60
2017-09-10T05:09:56.920Z,86.40
2017-09-10T05:11:57.916Z,86.50
2017-09-10T05:13:59.783Z,86.80
2017-09-10T05:16:01.513Z,87.60
2017-09-10T05:18:02.649Z,87.50
2017-09-10T05:20:03.693Z,87.40
2017-09-10T05:22:04.702Z,86.40
2017-09-10T05:24:05.681Z,86.10
2017-09-10T05:26:07.406Z,87.10
2017-09-10T05:28:08.385Z,87.10
2017-09-10T05:30:09.484Z,86.80
2017-09-10T05:32:10.450Z,87.50
2017-09-10T05:34:12.195Z,86.80
2017-09-10T05:36:13.944Z,86.80
2017-09-10T05:38:14.941Z,86.80
2017-09-10T05:40:15.921Z,86.20
2017-09-10T05:42:16.884Z,86.40
2017-09-10T05:44:17.865Z,86.30
2017-09-10T05:46:18.861Z,85.50
2017-09-10T05:48:19.861Z,85.00
2017-09-10T05:50:21.574Z,85.00
2017-09-10T05:52:22.528Z,85.00
2017-09-10T05:54:23.501Z,85.30
2017-09-10T05:56:25.217Z,86.00
2017-09-10T05:58:26.191Z,85.90
2017-09-10T06:00:27.924Z,86.10
2017-09-10T06:02:28.886Z,86.10
2017-09-10T06:04:29.857Z,85.90
2017-09-10T06:06:30.816Z,85.70
2017-09-10T06:08:31.797Z,85.70
2017-09-10T06:10:32.788Z,85.90
2017-09-10T06:12:33.748Z,86.20
2017-09-10T06:14:35.518Z,86.20
2017-09-10T06:16:36.500Z,86.10
2017-09-10T06:18:37.505Z,85.00
2017-09-10T06:20:38.497Z,85.70
2017-09-10T06:22:39.473Z,85.40
2017-09-10T06:24:40.490Z,85.30
2017-09-10T06:26:42.214Z,85.10
2017-09-10T06:28:43.938Z,85.30
2017-09-10T06:30:44.903Z,85.40
2017-09-10T06:32:45.883Z,85.70
2017-09-10T06:34:46.832Z,85.30
2017-09-10T06:36:47.806Z,85.90
2017-09-10T06:38:48.794Z,86.60
2017-09-10T06:40:49.778Z,87.40
2017-09-10T06:42:50.741Z,87.50
2017-09-10T06:44:52.453Z,86.30
2017-09-10T06:46:53.429Z,85.40
2017-09-10T06:48:55.157Z,84.50
2017-09-10T06:50:56.123Z,84.50
2017-09-10T06:52:57.817Z,83.20
2017-09-10T06:54:58.777Z,83.30
2017-09-10T06:56:59.752Z,82.50
2017-09-10T06:59:01.450Z,81.10
2017-09-10T07:01:02.421Z,81.20
2017-09-10T07:03:03.396Z,79.30
2017-09-10T07:05:04.344Z,78.30
2017-09-10T07:07:05.317Z,81.50
2017-09-10T07:09:06.270Z,78.10
2017-09-10T07:11:07.232Z,77.20
2017-09-10T07:13:08.185Z,76.90
2017-09-10T07:15:09.129Z,77.30
2017-09-10T07:17:10.078Z,75.70
2017-09-10T07:19:11.029Z,74.20
2017-09-10T07:21:11.977Z,73.20
2017-09-10T07:23:12.939Z,73.80
2017-09-10T07:25:13.914Z,73.90
2017-09-10T07:27:14.894Z,73.30
2017-09-10T07:29:16.585Z,74.00
2017-09-10T07:31:17.537Z,73.70
2017-09-10T07:33:18.495Z,72.00
2017-09-10T07:35:19.453Z,70.50
2017-09-10T07:37:21.157Z,70.70
2017-09-10T07:39:22.105Z,70.70
2017-09-10T07:41:23.064Z,70.30
2017-09-10T07:43:24.045Z,69.50
2017-09-10T07:45:24.998Z,69.30
2017-09-10T07:47:25.965Z,68.50
2017-09-10T07:49:26.921Z,68.40
2017-09-10T07:51:28.614Z,68.40
2017-09-10T07:53:29.567Z,67.70
2017-09-10T07:55:30.529Z,67.40
2017-09-10T07:57:31.480Z,65.20
2017-09-10T07:59:32.442Z,68.40
2017-09-10T08:01:33.405Z,67.50
2017-09-10T08:03:34.364Z,69.20
2017-09-10T08:05:35.321Z,66.60
2017-09-10T08:07:37.032Z,68.20
2017-09-10T08:09:38.000Z,69.00
2017-09-10T08:11:38.965Z,66.00
2017-09-10T08:13:40.685Z,64.60
2017-09-10T08:15:41.658Z,64.90
2017-09-10T08:17:42.610Z,65.20
2017-09-10T08:19:43.609Z,65.50
2017-09-10T08:21:44.557Z,63.50
2017-09-10T08:23:46.280Z,63.30
2017-09-10T08:25:47.254Z,63.10
2017-09-10T08:27:48.953Z,64.80
2017-09-10T08:29:50.032Z,65.10
2017-09-10T08:31:50.985Z,62.30
2017-09-10T08:33:52.693Z,63.50
2017-09-10T08:35:53.975Z,63.50
2017-09-10T08:37:54.944Z,62.00
2017-09-10T08:39:56.248Z,62.60
2017-09-10T08:41:57.962Z,61.20
2017-09-10T08:43:58.943Z,61.30
2017-09-10T08:45:59.938Z,59.10
2017-09-10T08:48:00.873Z,59.00
2017-09-10T08:50:01.838Z,58.50
2017-09-10T08:52:02.798Z,62.10
2017-09-10T08:54:03.768Z,61.10
2017-09-10T08:56:04.758Z,60.80
2017-09-10T08:58:06.472Z,58.50
2017-09-10T09:00:07.560Z,58.40
2017-09-10T09:02:08.533Z,59.50
2017-09-10T09:04:09.483Z,60.20
2017-09-10T09:06:10.453Z,59.10
2017-09-10T09:08:12.153Z,59.10
2017-09-10T09:10:13.125Z,58.60
2017-09-10T09:12:14.093Z,57.20
2017-09-10T09:14:15.048Z,57.90
2017-09-10T09:16:16.019Z,57.70
2017-09-10T09:18:16.972Z,60.00
2017-09-10T09:20:17.933Z,57.60
2017-09-10T09:22:19.634Z,55.80
2017-09-10T09:24:20.588Z,55.60
2017-09-10T09:26:21.565Z,56.30
2017-09-10T09:28:22.529Z,57.70
2017-09-10T09:30:23.493Z,57.00
2017-09-10T09:32:24.450Z,54.70
2017-09-10T09:34:26.154Z,55.70
2017-09-10T09:36:27.114Z,55.60
2017-09-10T09:38:28.078Z,54.40
2017-09-10T09:40:29.042Z,54.40
2017-09-10T09:42:30.077Z,55.80
2017-09-10T09:44:31.043Z,56.00
2017-09-10T09:46:32.010Z,55.70
2017-09-10T09:48:32.969Z,54.00
2017-09-10T09:50:34.669Z,54.40
2017-09-10T09:52:35.641Z,54.00
2017-09-10T09:54:36.603Z,55.40
2017-09-10T09:56:37.573Z,52.30
2017-09-10T09:58:38.537Z,55.40
2017-09-10T10:00:39.501Z,52.70
2017-09-10T10:02:41.201Z,51.70
2017-09-10T10:04:42.170Z,51.60
2017-09-10T10:06:43.883Z,52.60
2017-09-10T10:08:44.841Z,52.80
2017-09-10T10:10:45.808Z,52.50
2017-09-10T10:12:47.521Z,52.10
2017-09-10T10:14:48.494Z,52.10
2017-09-10T10:16:50.197Z,52.20
2017-09-10T10:18:51.173Z,51.10
2017-09-10T10:20:52.178Z,53.20
2017-09-10T10:22:53.148Z,53.90
2017-09-10T10:24:54.862Z,51.00
2017-09-10T10:26:55.818Z,50.90
2017-09-10T10:28:56.794Z,53.00
2017-09-10T10:30:58.506Z,49.40
2017-09-10T10:32:59.478Z,49.40
2017-09-10T10:35:01.179Z,49.10
2017-09-10T10:37:02.158Z,49.00
2017-09-10T10:39:03.873Z,47.90
2017-09-10T10:41:04.846Z,47.60
2017-09-10T10:43:06.577Z,52.30
2017-09-10T10:45:07.595Z,52.30
2017-09-10T10:47:08.564Z,51.70
2017-09-10T10:49:09.552Z,52.50
2017-09-10T10:51:10.509Z,51.50
2017-09-10T10:53:11.497Z,53.90
2017-09-10T10:55:12.476Z,52.80
2017-09-10T10:57:13.439Z,55.00
2017-09-10T10:59:14.418Z,53.20
2017-09-10T11:01:15.386Z,52.90
2017-09-10T11:03:16.353Z,51.90
2017-09-10T11:05:17.306Z,51.60
2017-09-10T11:07:18.256Z,49.80
2017-09-10T11:09:19.229Z,48.50
2017-09-10T11:11:20.201Z,49.30
2017-09-10T11:13:21.930Z,47.60
2017-09-10T11:15:22.899Z,47.60
2017-09-10T11:17:24.611Z,46.40
2017-09-10T11:19:25.596Z,46.70
2017-09-10T11:21:27.301Z,48.40
2017-09-10T11:23:28.264Z,48.60
2017-09-10T11:25:29.262Z,47.60
2017-09-10T11:27:30.495Z,47.60
2017-09-10T11:29:31.483Z,48.10
2017-09-10T11:31:33.197Z,50.60
2017-09-10T11:33:34.173Z,50.40
2017-09-10T11:35:35.877Z,48.40
2017-09-10T11:37:36.832Z,48.10
2017-09-10T11:39:37.797Z,49.30
2017-09-10T11:41:38.781Z,50.40
2017-09-10T11:43:39.731Z,49.70
2017-09-10T11:45:40.705Z,47.30
2017-09-10T11:47:42.398Z,47.00
2017-09-10T11:49:43.384Z,46.90
2017-09-10T11:51:44.351Z,47.00
2017-09-10T11:53:45.314Z,49.00
2017-09-10T11:55:46.282Z,47.00
2017-09-10T11:57:47.258Z,48.60
2017-09-10T11:59:49.015Z,48.50
2017-09-10T12:01:49.977Z,48.60
2017-09-10T12:03:51.118Z,48.10
2017-09-10T12:05:52.085Z,50.00
2017-09-10T12:07:53.038Z,46.50
2017-09-10T12:09:55.695Z,45.60
2017-09-10T12:11:56.774Z,45.50
2017-09-10T12:13:58.418Z,48.80
2017-09-10T12:16:00.700Z,45.30
2017-09-10T12:18:01.910Z,45.50
2017-09-10T12:20:02.913Z,45.40
2017-09-10T12:22:04.804Z,49.20
2017-09-10T12:24:06.069Z,46.60
2017-09-10T12:26:07.070Z,47.20
2017-09-10T12:28:08.030Z,47.00
2017-09-10T12:30:10.481Z,44.80
2017-09-10T12:32:12.413Z,44.80
2017-09-10T12:34:14.453Z,47.60
2017-09-10T12:36:15.641Z,44.10
2017-09-10T12:38:16.689Z,45.70
2017-09-10T12:40:17.868Z,46.80
2017-09-10T12:42:20.526Z,44.60
2017-09-10T12:44:22.222Z,42.90
2017-09-10T12:46:24.601Z,44.00
2017-09-10T12:48:25.557Z,44.00
2017-09-10T12:50:26.525Z,42.70
2017-09-10T12:52:27.709Z,44.80
2017-09-10T12:54:28.804Z,45.60
2017-09-10T12:56:29.774Z,44.60
2017-09-10T12:58:31.062Z,44.30
2017-09-10T13:00:32.764Z,43.40
2017-09-10T13:02:34.020Z,44.00
2017-09-10T13:04:35.017Z,44.20
2017-09-10T13:06:35.981Z,46.40
2017-09-10T13:08:36.993Z,48.80
2017-09-10T13:10:38.301Z,49.10
2017-09-10T13:12:39.458Z,45.00
2017-09-10T13:14:41.397Z,44.80
2017-09-10T13:16:42.358Z,44.90
2017-09-10T13:18:44.262Z,46.50
2017-09-10T13:20:45.221Z,46.50
2017-09-10T13:22:46.649Z,44.70
2017-09-10T13:24:48.412Z,44.40
2017-09-10T13:26:49.566Z,45.10
2017-09-10T13:28:50.535Z,48.30
2017-09-10T13:30:59.182Z,44.80
2017-09-10T13:33:00.432Z,45.00
2017-09-10T13:35:01.640Z,47.40
2017-09-10T13:37:02.605Z,46.90
2017-09-10T13:39:03.588Z,44.30
2017-09-10T13:41:04.537Z,46.00
2017-09-10T13:43:06.266Z,46.40
2017-09-10T13:45:07.236Z,46.10
2017-09-10T13:47:08.950Z,44.70
2017-09-10T13:49:09.914Z,44.60
2017-09-10T13:51:11.621Z,48.10
2017-09-10T13:53:12.590Z,46.80
2017-09-10T13:55:13.618Z,45.60
2017-09-10T13:57:14.586Z,49.20
2017-09-10T13:59:16.297Z,46.50
2017-09-10T14:01:17.274Z,46.50
2017-09-10T14:03:18.982Z,48.10
2017-09-10T14:05:19.966Z,48.20
2017-09-10T14:07:20.924Z,45.30
2017-09-10T14:09:21.901Z,46.10
2017-09-10T14:11:22.859Z,46.80
2017-09-10T14:13:24.554Z,48.90
2017-09-10T14:15:25.521Z,48.80
2017-09-10T14:17:26.485Z,50.90
2017-09-10T14:19:28.202Z,51.70
2017-09-10T14:21:29.169Z,51.50
2017-09-10T14:23:30.866Z,50.10
2017-09-10T14:25:31.837Z,50.30
2017-09-10T14:27:32.811Z,51.50
2017-09-10T14:29:34.510Z,51.10
2017-09-10T14:31:35.485Z,51.10
2017-09-10T14:33:37.190Z,49.80
2017-09-10T14:35:38.165Z,50.10
2017-09-10T14:37:39.121Z,49.80
2017-09-10T14:39:40.835Z,49.60
2017-09-10T14:41:41.819Z,49.70
2017-09-10T14:43:42.816Z,51.80
2017-09-10T14:45:43.790Z,50.30
2017-09-10T14:47:45.502Z,49.10
2017-09-10T14:49:46.461Z,49.10
2017-09-10T14:51:48.165Z,48.80
2017-09-10T14:53:49.129Z,48.60
2017-09-10T14:55:50.098Z,49.20
2017-09-10T14:57:51.796Z,49.70
2017-09-10T14:59:52.784Z,49.80
2017-09-10T15:01:54.492Z,48.00
2017-09-10T15:03:55.461Z,47.90
2017-09-10T15:05:56.400Z,49.30
2017-09-10T15:07:58.133Z,51.40
2017-09-10T15:09:59.114Z,51.50
2017-09-10T15:12:00.145Z,52.80
2017-09-10T15:14:01.870Z,54.20
2017-09-10T15:16:02.821Z,54.30
2017-09-10T15:18:04.541Z,53.60
2017-09-10T15:20:05.543Z,53.60
2017-09-10T15:22:06.505Z,54.10
2017-09-10T15:24:07.497Z,55.80
2017-09-10T15:26:08.470Z,54.00
2017-09-10T15:28:09.445Z,54.10
2017-09-10T15:30:10.426Z,54.70
2017-09-10T15:32:11.404Z,53.70
2017-09-10T15:34:12.362Z,56.00
2017-09-10T15:36:14.184Z,53.70
2017-09-10T15:38:15.160Z,53.80
2017-09-10T15:40:16.878Z,54.10
2017-09-10T15:42:17.857Z,54.00
2017-09-10T15:44:18.869Z,54.80
2017-09-10T15:46:19.817Z,52.30
2017-09-10T15:48:21.541Z,53.20
2017-09-10T15:50:22.516Z,53.30
2017-09-10T15:52:24.217Z,53.80
2017-09-10T15:54:25.722Z,53.60
2017-09-10T15:56:26.684Z,56.70
2017-09-10T15:58:27.658Z,52.90
2017-09-10T16:00:28.673Z,54.10
2017-09-10T16:02:29.661Z,55.60
2017-09-10T16:04:31.374Z,55.80
2017-09-10T16:06:32.349Z,55.80
2017-09-10T16:08:34.066Z,54.80
2017-09-10T16:10:35.029Z,54.90
2017-09-10T16:12:36.770Z,54.20
2017-09-10T16:14:37.736Z,54.30
2017-09-10T16:16:39.434Z,53.30
2017-09-10T16:18:40.413Z,53.40
2017-09-10T16:20:42.120Z,53.00
2017-09-10T16:22:43.086Z,52.90
2017-09-10T16:24:44.060Z,55.70
2017-09-10T16:26:45.016Z,55.20
2017-09-10T16:28:46.049Z,55.50
2017-09-10T16:30:47.014Z,54.00
2017-09-10T16:32:47.991Z,55.30
2017-09-10T16:34:49.714Z,55.50
2017-09-10T16:36:50.685Z,55.40
2017-09-10T16:38:51.663Z,53.30
2017-09-10T16:40:52.661Z,54.60
2017-09-10T16:42:53.653Z,55.20
2017-09-10T16:44:54.636Z,54.80
2017-09-10T16:46:55.598Z,54.90
2017-09-10T16:48:56.540Z,55.70
2017-09-10T16:50:57.508Z,55.60
2017-09-10T16:52:58.469Z,54.70
2017-09-10T16:55:00.437Z,55.30
2017-09-10T16:57:01.405Z,55.40
2017-09-10T16:59:02.386Z,55.90
2017-09-10T17:01:04.076Z,58.80
2017-09-10T17:03:05.110Z,59.10
2017-09-10T17:05:06.142Z,59.60
2017-09-10T17:07:07.105Z,58.40
2017-09-10T17:09:08.101Z,59.40
2017-09-10T17:11:09.809Z,59.60
2017-09-10T17:13:10.781Z,59.70
2017-09-10T17:15:12.507Z,60.00
2017-09-10T17:17:13.579Z,60.00
2017-09-10T17:19:15.285Z,61.50
2017-09-10T17:21:17.005Z,61.30
2017-09-10T17:23:18.003Z,61.20
2017-09-10T17:25:18.983Z,61.50
2017-09-10T17:27:19.945Z,61.20
2017-09-10T17:29:20.905Z,62.30
2017-09-10T17:31:21.892Z,61.00
2017-09-10T17:33:22.865Z,61.90
2017-09-10T17:35:23.829Z,61.40
2017-09-10T17:37:25.533Z,61.60
2017-09-10T17:39:26.502Z,62.40
2017-09-10T17:41:27.474Z,62.50
2017-09-10T17:43:28.457Z,62.80
2017-09-10T17:45:29.438Z,62.30
2017-09-10T17:47:31.157Z,61.60
2017-09-10T17:49:32.131Z,61.60
2017-09-10T17:54:00.073Z,63.70
2017-09-10T17:56:01.030Z,63.60
2017-09-10T17:58:02.005Z,63.80
2017-09-10T18:00:03.073Z,63.90
2017-09-10T18:02:04.037Z,63.90
2017-09-10T18:04:04.990Z,63.70
2017-09-10T18:06:06.675Z,63.70
2017-09-10T18:08:07.660Z,63.60
2017-09-10T18:10:09.355Z,65.00
2017-09-10T18:12:10.333Z,64.00
2017-09-10T18:14:11.420Z,64.40
2017-09-10T18:16:12.394Z,64.40
2017-09-10T18:18:13.382Z,64.60
2017-09-10T18:20:15.093Z,65.00
2017-09-10T18:22:16.065Z,65.00
2017-09-10T18:24:17.037Z,65.10
2017-09-10T18:26:18.017Z,64.70
2017-09-10T18:28:18.990Z,65.00
2017-09-10T18:30:19.937Z,65.00
2017-09-10T18:32:20.897Z,64.70
2017-09-10T18:34:21.870Z,64.80
2017-09-10T18:36:23.568Z,65.00
2017-09-10T18:38:24.541Z,65.10
2017-09-10T18:40:25.493Z,65.00
2017-09-10T18:42:27.193Z,65.30
2017-09-10T18:44:28.161Z,65.30
2017-09-10T18:46:29.110Z,64.80
2017-09-10T18:48:30.085Z,65.00
2017-09-10T18:50:31.053Z,64.50
2017-09-10T18:52:32.040Z,64.90
2017-09-10T18:54:33.757Z,64.10
2017-09-10T18:56:34.738Z,64.00
2017-09-10T18:58:36.453Z,62.80
2017-09-10T19:00:37.413Z,63.00
2017-09-10T19:02:39.117Z,62.90
2017-09-10T19:04:40.095Z,62.80
2017-09-10T19:06:41.802Z,63.50
2017-09-10T19:08:42.765Z,63.30
2017-09-10T19:10:43.751Z,64.00
2017-09-10T19:12:44.730Z,63.50
2017-09-10T19:14:45.699Z,62.60
2017-09-10T19:16:47.421Z,63.10
2017-09-10T19:18:49.198Z,63.20
2017-09-10T19:20:50.922Z,63.70
2017-09-10T19:22:51.890Z,63.70
2017-09-10T19:24:53.607Z,63.90
2017-09-10T19:26:54.582Z,63.90
2017-09-10T19:28:56.278Z,65.10
2017-09-10T19:30:57.240Z,65.00
2017-09-10T19:32:58.237Z,64.70
2017-09-10T19:34:59.196Z,65.00
2017-09-10T19:37:00.156Z,65.40
2017-09-10T19:39:01.126Z,64.40
2017-09-10T19:41:02.861Z,64.80
2017-09-10T19:43:04.588Z,64.50
2017-09-10T19:45:05.582Z,63.70
2017-09-10T19:47:06.546Z,64.40
2017-09-10T19:49:07.518Z,64.60
2017-09-10T19:51:08.500Z,65.50
2017-09-10T19:53:09.455Z,64.30
2017-09-10T19:55:10.426Z,64.70
2017-09-10T19:57:11.389Z,64.30
2017-09-10T19:59:13.106Z,63.80
2017-09-10T20:01:14.802Z,63.90
2017-09-10T20:03:15.761Z,63.90
2017-09-10T20:05:16.709Z,63.80
2017-09-10T20:07:17.677Z,64.10
2017-09-10T20:09:18.630Z,63.70
2017-09-10T20:11:20.349Z,63.50
2017-09-10T20:13:21.307Z,63.40
2017-09-10T20:15:22.292Z,63.00
2017-09-10T20:17:23.272Z,62.50
2017-09-10T20:19:24.244Z,63.70
2017-09-10T20:21:25.213Z,63.50
2017-09-10T20:23:26.190Z,63.30
2017-09-10T20:25:27.163Z,63.50
2017-09-10T20:27:28.148Z,63.30
2017-09-10T20:29:29.114Z,63.10
2017-09-10T20:31:30.833Z,62.70
2017-09-10T20:33:31.795Z,62.60
2017-09-10T20:35:33.495Z,62.00
2017-09-10T20:37:34.569Z,61.80
2017-09-10T20:39:35.553Z,61.80
2017-09-10T20:41:36.538Z,61.00
2017-09-10T20:43:37.502Z,61.70
2017-09-10T20:45:39.218Z,60.30
2017-09-10T20:47:40.195Z,60.30
2017-09-10T20:49:41.921Z,60.70
2017-09-10T20:51:42.889Z,60.70
2017-09-10T20:53:43.865Z,61.20
2017-09-10T20:55:44.833Z,61.50
2017-09-10T20:57:45.793Z,61.90
2017-09-10T20:59:46.751Z,61.20
2017-09-10T21:01:47.708Z,61.40
2017-09-10T21:03:48.664Z,61.00
2017-09-10T21:05:49.638Z,61.30
2017-09-10T21:07:50.604Z,60.90
2017-09-10T21:09:51.566Z,60.90
2017-09-10T21:11:52.591Z,60.90
2017-09-10T21:13:53.565Z,61.50
2017-09-10T21:15:54.532Z,60.40
2017-09-10T21:17:55.513Z,62.10
2017-09-10T21:19:56.468Z,61.90
2017-09-10T21:21:57.444Z,61.70
2017-09-10T21:23:58.413Z,61.90
2017-09-10T21:25:59.392Z,61.40
2017-09-10T21:28:01.081Z,61.20
2017-09-10T21:30:02.049Z,60.40
2017-09-10T21:32:03.557Z,61.10
2017-09-10T21:34:04.521Z,60.40
2017-09-10T21:36:05.476Z,60.40
2017-09-10T21:38:06.442Z,60.00
2017-09-10T21:40:08.140Z,59.70
2017-09-10T21:42:09.152Z,59.60
2017-09-10T21:44:10.176Z,59.90
2017-09-10T21:46:11.268Z,59.90
2017-09-10T21:48:12.223Z,59.90
2017-09-10T21:50:13.201Z,60.10
2017-09-10T21:52:14.167Z,60.00
2017-09-10T21:54:15.136Z,59.50
2017-09-10T21:56:16.840Z,61.00
2017-09-10T21:58:17.821Z,60.10
2017-09-10T22:00:18.789Z,59.60
2017-09-10T22:02:19.745Z,60.10
2017-09-10T22:04:20.724Z,60.50
2017-09-10T22:06:21.681Z,59.90
2017-09-10T22:08:23.364Z,61.00
2017-09-10T22:10:24.330Z,61.00
2017-09-10T22:12:25.288Z,61.30
2017-09-10T22:14:26.238Z,61.80
2017-09-10T22:16:27.933Z,62.70
2017-09-10T22:18:28.885Z,62.60
2017-09-10T22:20:29.841Z,62.50
2017-09-10T22:22:30.835Z,61.60
2017-09-10T22:24:31.818Z,62.40
2017-09-10T22:26:32.805Z,62.60
2017-09-10T22:28:33.765Z,62.50
2017-09-10T22:30:34.753Z,63.10
2017-09-10T22:32:36.497Z,63.20
2017-09-10T22:34:38.223Z,64.30
2017-09-10T22:36:39.184Z,64.40
2017-09-10T22:38:40.160Z,64.60
2017-09-10T22:40:41.117Z,64.70
2017-09-10T22:42:42.079Z,64.60
2017-09-10T22:44:43.042Z,64.70
2017-09-10T22:46:44.760Z,65.30
2017-09-10T22:48:45.721Z,65.20
2017-09-10T22:50:47.447Z,65.90
2017-09-10T22:52:49.556Z,65.80
2017-09-10T22:54:50.500Z,65.10
2017-09-10T22:56:51.457Z,65.40
2017-09-10T22:58:52.418Z,66.20
2017-09-10T23:00:53.392Z,66.50
2017-09-10T23:02:55.085Z,66.60
2017-09-10T23:04:56.057Z,66.50
2017-09-10T23:06:57.786Z,67.00
2017-09-10T23:08:58.740Z,66.20
2017-09-10T23:10:59.729Z,66.10
2017-09-10T23:13:00.689Z,66.20
2017-09-10T23:15:01.663Z,65.90
2017-09-10T23:17:02.626Z,64.80
2017-09-10T23:19:03.586Z,64.50
2017-09-10T23:21:04.550Z,65.70
2017-09-10T23:23:05.517Z,65.50
2017-09-10T23:25:07.217Z,65.60
2017-09-10T23:27:08.191Z,65.50
2017-09-10T23:29:09.893Z,66.30
2017-09-10T23:31:10.852Z,66.20
2017-09-10T23:33:11.837Z,65.60
2017-09-10T23:35:13.557Z,65.20
2017-09-10T23:37:14.518Z,65.20
2017-09-10T23:39:16.225Z,65.90
2017-09-10T23:41:17.177Z,65.90
2017-09-10T23:43:18.139Z,66.20
2017-09-10T23:45:19.845Z,66.10
2017-09-10T23:47:20.802Z,66.20
2017-09-10T23:49:22.625Z,65.00
2017-09-10T23:51:23.597Z,64.50
2017-09-10T23:53:24.590Z,64.30
2017-09-10T23:55:25.655Z,63.80
2017-09-10T23:57:26.604Z,64.50
2017-09-10T23:59:27.553Z,64.10
